Time;durP1;ratioP1;P1;durP2;ratioP2;P2;SDS_P1;SDS_P2;PMS_P1;PMS_P2;Temp;Humidity;BMP_temperature;BMP_pressure;BME280_temperature;BME280_humidity;BME280_pressure;Samples;Min_cycle;Max_cycle;Signal;HPM_P1;HPM_P2
2023/09/05 00:02:05;;;;;;;;;;;16.10;99.90;;;;;;5062903;28;20089;-72
2023/09/05 00:04:33;;;;;;;;;;;16.10;99.90;;;;;;5063739;28;19962;-72
2023/09/05 00:06:59;;;;;;;;;;;16.10;99.90;;;;;;5063625;28;20003;-72
2023/09/05 00:09:26;;;;;;;;;;;16.10;99.90;;;;;;5063271;28;19929;-72
2023/09/05 00:11:53;;;;;;;;;;;16.10;99.90;;;;;;5062936;28;19944;-72
2023/09/05 00:14:20;;;;;;;;;;;16.00;99.90;;;;;;5063297;28;19928;-73
2023/09/05 00:16:47;;;;;;;;;;;16.00;99.90;;;;;;5063412;28;19988;-72
2023/09/05 00:19:13;;;;;;;;;;;16.00;99.90;;;;;;5064297;28;20103;-72
2023/09/05 00:21:41;;;;;;;;;;;15.90;99.90;;;;;;5066765;28;19921;-72
2023/09/05 00:24:23;;;;;;;;;;;15.90;99.90;;;;;;5065525;28;19984;-72
2023/09/05 00:26:50;;;;;;;;;;;15.90;99.90;;;;;;5066929;28;19927;-73
2023/09/05 00:29:19;;;;;;;;;;;15.90;99.90;;;;;;5067179;28;19983;-72
2023/09/05 00:31:46;;;;;;;;;;;15.90;99.90;;;;;;5066735;28;19921;-72
2023/09/05 00:34:13;;;;;;;;;;;15.80;99.90;;;;;;5067139;28;20131;-73
2023/09/05 00:36:40;;;;;;;;;;;15.80;99.90;;;;;;5066960;28;19921;-72
2023/09/05 00:39:08;;;;;;;;;;;15.80;99.90;;;;;;5066721;28;20212;-72
2023/09/05 00:41:35;;;;;;;;;;;15.80;99.90;;;;;;5066421;28;19963;-72
2023/09/05 00:44:01;;;;;;;;;;;15.70;99.90;;;;;;5066938;28;20000;-73
2023/09/05 00:46:29;;;;;;;;;;;15.70;99.90;;;;;;5066901;28;19927;-72
2023/09/05 00:48:57;;;;;;;;;;;15.70;99.90;;;;;;5066859;28;19927;-73
2023/09/05 00:51:25;;;;;;;;;;;15.60;99.90;;;;;;5065800;28;19967;-72
2023/09/05 00:53:51;;;;;;;;;;;15.60;99.90;;;;;;5066764;28;19971;-72
2023/09/05 00:56:19;;;;;;;;;;;15.60;99.90;;;;;;5066606;28;19999;-72
2023/09/05 00:58:46;;;;;;;;;;;15.50;99.90;;;;;;5066727;28;20108;-72
2023/09/05 01:01:12;;;;;;;;;;;15.50;99.90;;;;;;5066011;28;19921;-72
2023/09/05 01:03:39;;;;;;;;;;;15.50;99.90;;;;;;5066378;28;19920;-73
2023/09/05 01:06:09;;;;;;;;;;;15.50;99.90;;;;;;5066490;28;19983;-72
2023/09/05 01:08:38;;;;;;;;;;;15.40;99.90;;;;;;5066382;28;19924;-72
2023/09/05 01:11:08;;;;;;;;;;;15.40;99.90;;;;;;5066422;28;19962;-72
2023/09/05 01:13:38;;;;;;;;;;;15.40;99.90;;;;;;5066397;28;19991;-72
2023/09/05 01:16:05;;;;;;;;;;;15.30;99.90;;;;;;5066012;28;20203;-72
2023/09/05 01:18:33;;;;;;;;;;;15.30;99.90;;;;;;5066386;28;19967;-72
2023/09/05 01:21:05;;;;;;;;;;;15.30;99.90;;;;;;5066129;28;19921;-76
2023/09/05 01:23:34;;;;;;;;;;;15.20;99.90;;;;;;5065761;28;20349;-72
2023/09/05 01:26:02;;;;;;;;;;;15.20;99.90;;;;;;5065886;28;19920;-73
2023/09/05 01:28:29;;;;;;;;;;;15.20;99.90;;;;;;5066112;28;19927;-72
2023/09/05 01:31:30;;;;;;;;;;;15.20;99.90;;;;;;5062822;28;19984;-72
2023/09/05 01:33:56;;;;;;;;;;;15.10;99.90;;;;;;5065745;28;19984;-72
2023/09/05 01:36:23;;;;;;;;;;;15.10;99.90;;;;;;5065889;28;19979;-73
2023/09/05 01:38:49;;;;;;;;;;;15.00;99.90;;;;;;5065995;28;19921;-72
2023/09/05 01:41:17;;;;;;;;;;;15.00;99.90;;;;;;5065293;28;20119;-72
2023/09/05 01:43:44;;;;;;;;;;;14.90;99.90;;;;;;5067636;28;19921;-72
2023/09/05 01:46:11;;;;;;;;;;;14.90;99.90;;;;;;5068048;28;20111;-72
2023/09/05 01:48:38;;;;;;;;;;;14.90;99.90;;;;;;5065714;28;19925;-73
2023/09/05 01:51:05;;;;;;;;;;;14.90;99.90;;;;;;5065504;28;20250;-72
2023/09/05 01:53:32;;;;;;;;;;;14.80;99.90;;;;;;5082416;28;20263;-72
2023/09/05 01:55:58;;;;;;;;;;;14.80;99.90;;;;;;5085544;28;19990;-72
2023/09/05 01:58:26;;;;;;;;;;;14.80;99.90;;;;;;5076894;28;19920;-72
2023/09/05 02:00:53;;;;;;;;;;;14.80;99.90;;;;;;5065483;28;19988;-72
2023/09/05 02:03:19;;;;;;;;;;;14.80;99.90;;;;;;5064833;28;19920;-72
2023/09/05 02:05:46;;;;;;;;;;;14.80;99.90;;;;;;5065306;28;20156;-72
2023/09/05 02:08:12;;;;;;;;;;;14.70;99.90;;;;;;5065354;28;19991;-73
2023/09/05 02:10:39;;;;;;;;;;;14.70;99.90;;;;;;5064920;28;20208;-73
2023/09/05 02:13:06;;;;;;;;;;;14.60;99.90;;;;;;5064402;28;19927;-73
2023/09/05 02:15:34;;;;;;;;;;;14.60;99.90;;;;;;5065004;28;19983;-72
2023/09/05 02:18:02;;;;;;;;;;;14.60;99.90;;;;;;5085095;28;19920;-72
2023/09/05 02:20:28;;;;;;;;;;;14.50;99.90;;;;;;5085205;28;19962;-72
2023/09/05 02:22:55;;;;;;;;;;;14.40;99.90;;;;;;5084214;28;20258;-73
2023/09/05 02:25:22;;;;;;;;;;;14.40;99.90;;;;;;5079318;28;19926;-73
2023/09/05 02:27:49;;;;;;;;;;;14.40;99.90;;;;;;5085073;28;19927;-73
2023/09/05 02:30:26;;;;;;;;;;;14.40;99.90;;;;;;5083127;28;19921;-72
2023/09/05 02:36:05;;;;;;;;;;;14.30;99.90;;;;;;5084587;28;19946;-72
2023/09/05 02:38:32;;;;;;;;;;;14.20;99.90;;;;;;5084962;28;19947;-72
2023/09/05 02:40:59;;;;;;;;;;;14.20;99.90;;;;;;5084774;28;19928;-73
2023/09/05 02:43:27;;;;;;;;;;;14.20;99.90;;;;;;5083990;28;20110;-73
2023/09/05 02:45:54;;;;;;;;;;;14.20;99.90;;;;;;5084595;28;19943;-72
2023/09/05 02:48:20;;;;;;;;;;;14.10;99.90;;;;;;5084411;28;19921;-72
2023/09/05 02:50:47;;;;;;;;;;;14.10;99.90;;;;;;5084689;28;20114;-72
2023/09/05 02:53:15;;;;;;;;;;;14.00;99.90;;;;;;5083890;28;19987;-72
2023/09/05 02:55:43;;;;;;;;;;;14.00;99.90;;;;;;5084051;28;20123;-72
2023/09/05 02:58:10;;;;;;;;;;;14.00;99.90;;;;;;5084476;28;20111;-72
2023/09/05 03:00:37;;;;;;;;;;;14.00;99.90;;;;;;5084545;28;19920;-72
2023/09/05 03:03:04;;;;;;;;;;;14.00;99.90;;;;;;5083537;28;19920;-72
2023/09/05 03:05:31;;;;;;;;;;;13.90;99.90;;;;;;5084048;28;19927;-72
2023/09/05 03:07:57;;;;;;;;;;;13.90;99.90;;;;;;5084414;28;19943;-72
2023/09/05 03:10:26;;;;;;;;;;;13.90;99.90;;;;;;5084315;28;19995;-72
2023/09/05 03:12:54;;;;;;;;;;;13.80;99.90;;;;;;5083065;28;20536;-72
2023/09/05 03:15:23;;;;;;;;;;;13.80;99.90;;;;;;5084185;28;19943;-72
2023/09/05 03:17:49;;;;;;;;;;;13.80;99.90;;;;;;5084301;28;20034;-73
2023/09/05 03:20:18;;;;;;;;;;;13.80;99.90;;;;;;5084295;28;20114;-73
2023/09/05 03:22:44;;;;;;;;;;;13.80;99.90;;;;;;5083364;28;20215;-72
2023/09/05 03:25:11;;;;;;;;;;;13.80;99.90;;;;;;5083895;28;19920;-72
2023/09/05 03:27:39;;;;;;;;;;;13.80;99.90;;;;;;5084120;28;20000;-73
2023/09/05 03:30:08;;;;;;;;;;;13.80;99.90;;;;;;5081455;28;19987;-74
2023/09/05 03:32:35;;;;;;;;;;;13.80;99.90;;;;;;5083430;28;19920;-72
2023/09/05 03:35:01;;;;;;;;;;;13.80;99.90;;;;;;5083948;28;20107;-72
2023/09/05 03:37:28;;;;;;;;;;;13.80;99.90;;;;;;5084116;28;19927;-72
2023/09/05 03:39:55;;;;;;;;;;;13.80;99.90;;;;;;5084012;28;19962;-72
2023/09/05 03:42:22;;;;;;;;;;;13.70;99.90;;;;;;5083504;28;19987;-72
2023/09/05 03:44:50;;;;;;;;;;;13.70;99.90;;;;;;5083937;28;19920;-72
2023/09/05 03:47:16;;;;;;;;;;;13.70;99.90;;;;;;5083980;28;19992;-73
2023/09/05 03:49:43;;;;;;;;;;;13.60;99.90;;;;;;5083547;28;20280;-73
2023/09/05 03:52:09;;;;;;;;;;;13.60;99.90;;;;;;5083468;28;19927;-73
2023/09/05 03:54:36;;;;;;;;;;;13.60;99.90;;;;;;5085394;28;19926;-72
2023/09/05 03:57:03;;;;;;;;;;;13.60;99.90;;;;;;5087876;28;19996;-73
2023/09/05 03:59:29;;;;;;;;;;;13.60;99.90;;;;;;5088046;28;19921;-73
2023/09/05 04:01:57;;;;;;;;;;;13.60;99.90;;;;;;5087314;28;19926;-72
2023/09/05 04:04:24;;;;;;;;;;;13.60;99.90;;;;;;5087579;28;20208;-72
2023/09/05 04:06:50;;;;;;;;;;;13.50;99.90;;;;;;5087686;28;19924;-72
2023/09/05 04:09:17;;;;;;;;;;;13.50;99.90;;;;;;5087378;28;20211;-73
2023/09/05 04:11:44;;;;;;;;;;;13.50;99.90;;;;;;5087135;28;19995;-72
2023/09/05 04:14:10;;;;;;;;;;;13.50;99.90;;;;;;5087554;28;19920;-72
2023/09/05 04:16:37;;;;;;;;;;;13.50;99.90;;;;;;5087473;28;20115;-72
2023/09/05 04:19:05;;;;;;;;;;;13.50;99.90;;;;;;5087550;28;19920;-72
2023/09/05 04:21:32;;;;;;;;;;;13.50;99.90;;;;;;5086935;28;19924;-73
2023/09/05 04:23:59;;;;;;;;;;;13.50;99.90;;;;;;5087428;28;19979;-73
2023/09/05 04:26:25;;;;;;;;;;;13.40;99.90;;;;;;5087064;28;19921;-72
2023/09/05 04:28:52;;;;;;;;;;;13.40;99.90;;;;;;5087011;28;19921;-73
2023/09/05 04:31:19;;;;;;;;;;;13.40;99.90;;;;;;5085189;28;19925;-76
2023/09/05 04:33:46;;;;;;;;;;;13.50;99.90;;;;;;5086721;28;19921;-73
2023/09/05 04:36:14;;;;;;;;;;;13.50;99.90;;;;;;5069741;28;19983;-72
2023/09/05 04:38:43;;;;;;;;;;;13.50;99.90;;;;;;5066798;28;19996;-72
2023/09/05 04:41:10;;;;;;;;;;;13.50;99.90;;;;;;5067036;28;19928;-72
2023/09/05 04:43:37;;;;;;;;;;;13.60;99.90;;;;;;5066045;28;19921;-72
2023/09/05 04:46:05;;;;;;;;;;;13.60;99.90;;;;;;5066621;28;19928;-72
2023/09/05 04:48:32;;;;;;;;;;;13.60;99.90;;;;;;5066786;28;19921;-73
2023/09/05 04:51:01;;;;;;;;;;;13.60;99.90;;;;;;5066777;28;19927;-73
2023/09/05 04:53:55;;;;;;;;;;;13.70;99.90;;;;;;5064450;28;19928;-72
2023/09/05 04:56:23;;;;;;;;;;;13.60;99.90;;;;;;5070957;28;19979;-72
2023/09/05 04:58:49;;;;;;;;;;;13.70;99.90;;;;;;5086830;28;19920;-72
2023/09/05 05:01:17;;;;;;;;;;;13.70;99.90;;;;;;5086877;28;19920;-72
2023/09/05 05:03:44;;;;;;;;;;;13.70;99.90;;;;;;5085837;28;19962;-72
2023/09/05 05:06:10;;;;;;;;;;;13.70;99.90;;;;;;5082854;28;19988;-72
2023/09/05 05:08:37;;;;;;;;;;;13.70;99.90;;;;;;5086701;28;19926;-72
2023/09/05 05:11:04;;;;;;;;;;;13.70;99.90;;;;;;5086481;28;19920;-72
2023/09/05 05:13:33;;;;;;;;;;;13.80;99.90;;;;;;5086022;28;19925;-72
2023/09/05 05:16:00;;;;;;;;;;;13.80;99.90;;;;;;5086422;28;19927;-72
2023/09/05 05:18:26;;;;;;;;;;;13.80;99.90;;;;;;5086571;28;19927;-71
2023/09/05 05:20:53;;;;;;;;;;;13.80;99.90;;;;;;5086426;28;19920;-73
2023/09/05 05:23:20;;;;;;;;;;;13.80;99.90;;;;;;5085457;28;20063;-72
2023/09/05 05:25:46;;;;;;;;;;;13.80;99.90;;;;;;5085709;28;19920;-71
2023/09/05 05:28:13;;;;;;;;;;;13.80;99.90;;;;;;5086274;28;20085;-71
2023/09/05 05:30:41;;;;;;;;;;;13.80;99.90;;;;;;5086102;28;19987;-72
2023/09/05 05:33:07;;;;;;;;;;;13.80;99.90;;;;;;5085497;28;20004;-73
2023/09/05 05:35:34;;;;;;;;;;;13.90;99.90;;;;;;5085840;28;19987;-72
2023/09/05 05:38:00;;;;;;;;;;;13.90;99.90;;;;;;5086047;28;19948;-72
2023/09/05 05:40:27;;;;;;;;;;;14.00;99.90;;;;;;5085867;28;19921;-72
2023/09/05 05:42:54;;;;;;;;;;;14.00;99.90;;;;;;5085254;28;20167;-72
2023/09/05 05:45:20;;;;;;;;;;;14.10;99.90;;;;;;5085546;28;19926;-72
2023/09/05 05:47:48;;;;;;;;;;;14.10;99.90;;;;;;5085435;28;19927;-73
2023/09/05 05:50:15;;;;;;;;;;;14.20;99.90;;;;;;5085470;28;19926;-71
2023/09/05 05:52:41;;;;;;;;;;;14.30;99.90;;;;;;5085016;28;20222;-71
2023/09/05 05:55:09;;;;;;;;;;;14.40;99.90;;;;;;5085554;28;20160;-73
2023/09/05 05:57:36;;;;;;;;;;;14.40;99.90;;;;;;5085434;28;20097;-73
2023/09/05 06:00:04;;;;;;;;;;;14.50;99.90;;;;;;5085709;28;19987;-71
2023/09/05 06:02:31;;;;;;;;;;;14.60;99.90;;;;;;5084681;28;19965;-72
2023/09/05 06:05:18;;;;;;;;;;;14.60;99.90;;;;;;5082753;28;20348;-72
2023/09/05 06:07:46;;;;;;;;;;;14.70;99.90;;;;;;5085231;28;19951;-71
2023/09/05 06:10:12;;;;;;;;;;;14.80;99.90;;;;;;5085468;28;19995;-72
2023/09/05 06:12:39;;;;;;;;;;;14.90;99.90;;;;;;5084834;28;19927;-72
2023/09/05 06:15:06;;;;;;;;;;;15.00;99.90;;;;;;5085212;28;19931;-72
2023/09/05 06:17:33;;;;;;;;;;;15.00;99.90;;;;;;5084971;28;19987;-75
2023/09/05 06:19:59;;;;;;;;;;;15.10;99.90;;;;;;5084261;28;20188;-72
2023/09/05 06:22:26;;;;;;;;;;;15.10;99.90;;;;;;5099565;28;19920;-72
2023/09/05 06:24:54;;;;;;;;;;;15.20;99.90;;;;;;5084780;28;19920;-73
2023/09/05 06:27:21;;;;;;;;;;;15.30;99.90;;;;;;5095553;28;19954;-71
2023/09/05 06:29:48;;;;;;;;;;;15.30;99.90;;;;;;5105075;28;19999;-72
2023/09/05 06:32:14;;;;;;;;;;;15.40;99.90;;;;;;5104662;28;19987;-72
2023/09/05 06:34:41;;;;;;;;;;;15.50;99.90;;;;;;5104462;28;20119;-73
2023/09/05 06:37:07;;;;;;;;;;;15.50;99.90;;;;;;5084719;28;19966;-72
2023/09/05 06:39:34;;;;;;;;;;;15.60;99.90;;;;;;5084467;28;20235;-74
2023/09/05 06:42:04;;;;;;;;;;;15.70;99.90;;;;;;5083951;28;19943;-73
2023/09/05 06:44:31;;;;;;;;;;;15.80;99.90;;;;;;5084375;28;19920;-72
2023/09/05 06:46:57;;;;;;;;;;;15.80;99.90;;;;;;5084470;28;19921;-73
2023/09/05 06:49:24;;;;;;;;;;;15.90;99.90;;;;;;5084598;28;20372;-71
2023/09/05 06:51:51;;;;;;;;;;;15.90;99.90;;;;;;5085102;28;19920;-72
2023/09/05 06:54:17;;;;;;;;;;;16.00;99.90;;;;;;5104347;28;19919;-74
2023/09/05 06:56:44;;;;;;;;;;;16.10;99.90;;;;;;5103529;28;19920;-71
2023/09/05 06:59:17;;;;;;;;;;;16.20;99.90;;;;;;5104800;28;19920;-71
2023/09/05 07:01:44;;;;;;;;;;;16.20;99.90;;;;;;5104118;28;19927;-74
2023/09/05 07:04:10;;;;;;;;;;;16.30;99.90;;;;;;5104520;28;19920;-72
2023/09/05 07:09:40;;;;;;;;;;;16.50;99.90;;;;;;5104234;28;20152;-72
2023/09/05 07:12:07;;;;;;;;;;;16.60;99.90;;;;;;5103753;28;19991;-72
2023/09/05 07:14:35;;;;;;;;;;;16.70;99.90;;;;;;5104442;28;20172;-73
2023/09/05 07:17:02;;;;;;;;;;;16.70;99.90;;;;;;5104388;28;19924;-73
2023/09/05 07:19:29;;;;;;;;;;;16.80;99.90;;;;;;5093239;28;20166;-72
2023/09/05 07:21:56;;;;;;;;;;;16.90;99.90;;;;;;5074797;28;19931;-71
2023/09/05 07:24:22;;;;;;;;;;;17.00;99.90;;;;;;5083995;28;19920;-73
2023/09/05 07:26:49;;;;;;;;;;;17.00;99.90;;;;;;5075315;28;20115;-72
2023/09/05 07:29:15;;;;;;;;;;;17.10;99.90;;;;;;5063332;28;19984;-73
2023/09/05 07:31:44;;;;;;;;;;;17.20;99.90;;;;;;5063846;28;19942;-71
2023/09/05 07:34:10;;;;;;;;;;;17.30;99.90;;;;;;5063642;28;19988;-72
2023/09/05 07:36:39;;;;;;;;;;;17.40;99.90;;;;;;5063545;28;20165;-72
2023/09/05 07:39:06;;;;;;;;;;;17.40;99.90;;;;;;5063966;28;19927;-72
2023/09/05 07:41:33;;;;;;;;;;;17.60;99.90;;;;;;5063794;28;19921;-72
2023/09/05 07:44:00;;;;;;;;;;;17.70;99.90;;;;;;5063269;28;19987;-72
2023/09/05 07:46:27;;;;;;;;;;;17.70;99.90;;;;;;5063704;28;19927;-73
2023/09/05 07:48:55;;;;;;;;;;;17.80;99.90;;;;;;5063836;28;19921;-72
2023/09/05 07:51:22;;;;;;;;;;;17.80;99.90;;;;;;5063708;28;19921;-72
2023/09/05 07:53:50;;;;;;;;;;;17.90;99.90;;;;;;5063268;28;19921;-74
2023/09/05 07:56:16;;;;;;;;;;;17.90;99.90;;;;;;5063583;28;20115;-72
2023/09/05 07:58:43;;;;;;;;;;;18.00;99.90;;;;;;5063752;28;19921;-72
2023/09/05 08:01:10;;;;;;;;;;;18.10;99.90;;;;;;5063711;28;20157;-72
2023/09/05 08:03:37;;;;;;;;;;;18.10;99.90;;;;;;5062734;28;20282;-72
2023/09/05 08:06:32;;;;;;;;;;;18.20;99.90;;;;;;5062678;28;20141;-72
2023/09/05 08:09:00;;;;;;;;;;;18.20;99.90;;;;;;5063363;28;20208;-73
2023/09/05 08:11:26;;;;;;;;;;;18.30;99.90;;;;;;5063460;28;20004;-73
2023/09/05 08:13:53;;;;;;;;;;;18.40;99.90;;;;;;5062843;28;19921;-73
2023/09/05 08:16:19;;;;;;;;;;;18.40;99.90;;;;;;5063489;28;20179;-72
2023/09/05 08:18:46;;;;;;;;;;;18.50;99.90;;;;;;5063503;28;19920;-72
2023/09/05 08:21:13;;;;;;;;;;;18.60;99.90;;;;;;5082986;28;19920;-73
2023/09/05 08:23:39;;;;;;;;;;;18.60;99.90;;;;;;5074384;28;19927;-72
2023/09/05 08:26:10;;;;;;;;;;;18.70;99.90;;;;;;5080643;28;20204;-74
2023/09/05 08:28:42;;;;;;;;;;;18.70;99.90;;;;;;5063169;28;19948;-72
2023/09/05 08:31:09;;;;;;;;;;;18.80;99.90;;;;;;5063409;28;20155;-72
2023/09/05 08:33:35;;;;;;;;;;;18.90;99.90;;;;;;5062734;28;19949;-72
2023/09/05 08:36:04;;;;;;;;;;;18.90;99.90;;;;;;5063294;28;19992;-73
2023/09/05 08:38:31;;;;;;;;;;;19.00;99.90;;;;;;5063061;28;19920;-72
2023/09/05 08:41:00;;;;;;;;;;;19.10;99.90;;;;;;5064518;28;19993;-72
2023/09/05 08:43:28;;;;;;;;;;;19.20;99.90;;;;;;5065886;28;19935;-73
2023/09/05 08:45:55;;;;;;;;;;;19.20;99.90;;;;;;5066750;28;19988;-72
2023/09/05 08:48:22;;;;;;;;;;;19.30;99.90;;;;;;5067006;28;20147;-72
2023/09/05 08:50:54;;;;;;;;;;;19.40;99.90;;;;;;5064770;28;19921;-72
2023/09/05 08:53:23;;;;;;;;;;;19.50;99.90;;;;;;5066337;28;19988;-72
2023/09/05 08:55:50;;;;;;;;;;;19.60;99.90;;;;;;5069581;28;19920;-72
2023/09/05 08:58:17;;;;;;;;;;;19.70;99.90;;;;;;5086830;28;19926;-72
2023/09/05 09:00:57;;;;;;;;;;;19.70;99.90;;;;;;5085136;28;19920;-72
2023/09/05 09:03:25;;;;;;;;;;;19.80;99.90;;;;;;5085998;28;19927;-72
2023/09/05 09:05:52;;;;;;;;;;;19.90;99.90;;;;;;5086510;28;19959;-72
2023/09/05 09:08:19;;;;;;;;;;;19.90;99.90;;;;;;5086662;28;19920;-72
2023/09/05 09:11:03;;;;;;;;;;;19.90;99.90;;;;;;5086370;28;19920;-73
2023/09/05 09:13:39;;;;;;;;;;;20.10;99.90;;;;;;5084156;28;19976;-73
2023/09/05 09:16:07;;;;;;;;;;;20.20;99.90;;;;;;5086626;28;19921;-72
2023/09/05 09:18:34;;;;;;;;;;;20.30;99.90;;;;;;5086576;28;19987;-72
2023/09/05 09:21:04;;;;;;;;;;;20.40;99.90;;;;;;5086172;28;20000;-72
2023/09/05 09:23:33;;;;;;;;;;;20.40;99.90;;;;;;5085914;28;19920;-72
2023/09/05 09:26:00;;;;;;;;;;;20.50;99.90;;;;;;5085960;28;19921;-72
2023/09/05 09:28:28;;;;;;;;;;;20.60;99.90;;;;;;5086112;28;20258;-72
2023/09/05 09:30:58;;;;;;;;;;;20.70;99.90;;;;;;5086282;28;19920;-73
2023/09/05 09:33:26;;;;;;;;;;;20.80;99.90;;;;;;5085706;28;19955;-72
2023/09/05 09:36:03;;;;;;;;;;;20.80;99.90;;;;;;5086090;28;19987;-73
2023/09/05 09:38:30;;;;;;;;;;;20.80;99.90;;;;;;5076840;28;19924;-71
2023/09/05 09:40:56;;;;;;;;;;;20.90;99.90;;;;;;5080602;28;19920;-71
2023/09/05 09:43:23;;;;;;;;;;;21.00;99.90;;;;;;5085018;28;19983;-72
2023/09/05 09:45:49;;;;;;;;;;;21.00;99.90;;;;;;5085712;28;19920;-72
2023/09/05 09:48:16;;;;;;;;;;;21.10;99.90;;;;;;5085851;28;19983;-72
2023/09/05 09:51:01;;;;;;;;;;;21.20;99.90;;;;;;5084819;28;19920;-72
2023/09/05 09:53:36;;;;;;;;;;;21.30;99.90;;;;;;5084136;28;19999;-72
2023/09/05 09:56:04;;;;;;;;;;;21.40;99.90;;;;;;5085299;28;19958;-72
2023/09/05 09:58:47;;;;;;;;;;;21.40;99.90;;;;;;5083545;28;19927;-72
2023/09/05 10:01:16;;;;;;;;;;;21.50;99.90;;;;;;5082831;28;19920;-72
2023/09/05 10:03:44;;;;;;;;;;;21.60;99.90;;;;;;5084944;28;19987;-72
2023/09/05 10:06:11;;;;;;;;;;;21.70;99.90;;;;;;5095460;22;20249;-71
2023/09/05 10:08:39;;;;;;;;;;;21.80;99.90;;;;;;5004816;28;19990;-71
2023/09/05 10:11:09;;;;;;;;;;;21.90;99.90;;;;;;5005614;28;19921;-71
2023/09/05 10:13:37;;;;;;;;;;;22.00;99.90;;;;;;5005507;28;19922;-71
2023/09/05 10:16:06;;;;;;;;;;;22.10;99.90;;;;;;5005753;28;19929;-70
2023/09/05 10:18:32;;;;;;;;;;;22.20;99.90;;;;;;5005519;28;19922;-68
2023/09/05 10:24:05;;;;;;;;;;;22.40;99.90;;;;;;5008689;28;19989;-69
2023/09/05 10:26:43;;;;;;;;;;;22.50;99.90;;;;;;5004808;28;19993;-69
2023/09/05 10:29:41;;;;;;;;;;;22.60;99.90;;;;;;5005569;28;19922;-68
2023/09/05 10:35:17;;;;;;;;;;;22.70;99.90;;;;;;4890378;29;19920;-69
2023/09/05 10:37:59;;;;;;;;;;;22.80;99.90;;;;;;4986671;28;19980;-68
2023/09/05 10:40:37;;;;;;;;;;;22.90;99.90;;;;;;5013230;28;19985;-68
2023/09/05 10:43:04;;;;;;;;;;;22.90;99.90;;;;;;5024687;28;19988;-67
2023/09/05 10:45:32;;;;;;;;;;;22.90;99.90;;;;;;5024844;28;19921;-67
2023/09/05 10:48:07;;;;;;;;;;;22.90;99.90;;;;;;5024773;28;19956;-68
2023/09/05 10:50:54;;;;;;;;;;;22.90;99.90;;;;;;5024768;28;20210;-68
2023/09/05 10:53:22;;;;;;;;;;;23.00;99.90;;;;;;5014030;28;19922;-68
2023/09/05 10:55:54;;;;;;;;;;;23.20;99.90;;;;;;5004657;28;19922;-68
2023/09/05 10:58:54;;;;;;;;;;;23.20;99.90;;;;;;5004685;28;19922;-68
2023/09/05 11:07:58;;;;;;;;;;;23.60;99.90;;;;;;5012545;28;19929;-68
2023/09/05 11:10:25;;;;;;;;;;;23.60;99.90;;;;;;5022635;28;19921;-68
2023/09/05 11:12:53;;;;;;;;;;;23.80;99.90;;;;;;5024178;28;19992;-68
2023/09/05 11:15:32;;;;;;;;;;;23.80;99.90;;;;;;5024052;28;19968;-68
2023/09/05 11:17:59;;;;;;;;;;;23.80;99.90;;;;;;5024518;28;20128;-68
2023/09/05 11:20:39;;;;;;;;;;;23.90;99.90;;;;;;5024315;28;19972;-68
2023/09/05 11:23:12;;;;;;;;;;;24.10;99.90;;;;;;5015837;28;19922;-68
2023/09/05 11:25:43;;;;;;;;;;;24.20;99.90;;;;;;4985164;28;20109;-68
2023/09/05 11:28:11;;;;;;;;;;;24.30;99.90;;;;;;4985052;28;20004;-68
2023/09/05 11:30:37;;;;;;;;;;;24.40;99.90;;;;;;4985105;28;20094;-68
2023/09/05 11:33:07;;;;;;;;;;;24.60;99.90;;;;;;4984739;28;19923;-68
2023/09/05 11:35:35;;;;;;;;;;;24.70;99.90;;;;;;4984987;28;19922;-68
2023/09/05 11:38:03;;;;;;;;;;;24.90;99.90;;;;;;5015809;28;19977;-68
2023/09/05 11:40:30;;;;;;;;;;;25.10;99.90;;;;;;5004735;28;20247;-68
2023/09/05 11:43:09;;;;;;;;;;;25.30;99.90;;;;;;5004183;28;19922;-68
2023/09/05 11:45:38;;;;;;;;;;;25.50;99.90;;;;;;5004314;28;20116;-69
2023/09/05 11:48:05;;;;;;;;;;;25.70;99.90;;;;;;5004126;28;19922;-68
2023/09/05 11:50:32;;;;;;;;;;;25.80;99.90;;;;;;5003987;28;19921;-68
2023/09/05 11:52:59;;;;;;;;;;;25.90;99.90;;;;;;4995760;28;19946;-68
2023/09/05 11:55:26;;;;;;;;;;;25.90;99.90;;;;;;5004156;28;19922;-68
2023/09/05 11:57:53;;;;;;;;;;;25.90;99.90;;;;;;5004271;28;19946;-68
2023/09/05 12:00:20;;;;;;;;;;;26.00;99.90;;;;;;5004381;28;19922;-69
2023/09/05 12:02:48;;;;;;;;;;;26.00;99.90;;;;;;5003944;28;19997;-69
2023/09/05 12:05:19;;;;;;;;;;;26.00;99.90;;;;;;5004325;28;20000;-68
2023/09/05 12:07:49;;;;;;;;;;;25.90;99.90;;;;;;5003857;28;19929;-69
2023/09/05 12:10:16;;;;;;;;;;;25.90;99.90;;;;;;5004142;28;19925;-69
2023/09/05 12:12:53;;;;;;;;;;;26.00;99.90;;;;;;5003882;28;20000;-69
2023/09/05 12:15:27;;;;;;;;;;;26.20;99.90;;;;;;5005091;28;19943;-69
2023/09/05 12:17:56;;;;;;;;;;;26.30;99.90;;;;;;5008040;28;19928;-68
2023/09/05 12:23:23;;;;;;;;;;;26.40;99.90;;;;;;4987668;28;19924;-69
2023/09/05 12:25:52;;;;;;;;;;;26.70;99.90;;;;;;5007528;28;19922;-69
2023/09/05 12:28:20;;;;;;;;;;;26.70;99.90;;;;;;5007807;28;19929;-70
2023/09/05 12:30:47;;;;;;;;;;;26.80;99.90;;;;;;5007885;28;19928;-69
2023/09/05 12:33:16;;;;;;;;;;;26.80;99.90;;;;;;5007424;28;19922;-68
2023/09/05 12:35:44;;;;;;;;;;;26.70;99.90;;;;;;5007482;28;19922;-68
2023/09/05 12:38:10;;;;;;;;;;;26.60;99.90;;;;;;5006736;28;20112;-68
2023/09/05 12:40:37;;;;;;;;;;;26.70;99.90;;;;;;5007176;28;19926;-69
2023/09/05 12:43:05;;;;;;;;;;;26.80;99.90;;;;;;5006903;28;19925;-68
2023/09/05 12:45:32;;;;;;;;;;;26.80;99.90;;;;;;5007285;28;19957;-69
2023/09/05 12:47:59;;;;;;;;;;;27.00;99.90;;;;;;5006970;28;19921;-68
2023/09/05 12:50:29;;;;;;;;;;;27.10;99.90;;;;;;5007390;28;20182;-69
2023/09/05 12:52:56;;;;;;;;;;;27.20;99.90;;;;;;5007032;28;19922;-69
2023/09/05 12:55:35;;;;;;;;;;;27.30;99.90;;;;;;5007010;28;19972;-69
2023/09/05 12:58:06;;;;;;;;;;;27.50;99.90;;;;;;5006144;28;19953;-69
2023/09/05 13:00:33;;;;;;;;;;;27.70;99.90;;;;;;5007126;28;19922;-68
2023/09/05 13:03:00;;;;;;;;;;;27.80;99.90;;;;;;5006872;28;20002;-70
2023/09/05 13:05:30;;;;;;;;;;;27.90;99.90;;;;;;5007025;28;20174;-69
2023/09/05 13:07:56;;;;;;;;;;;27.90;99.90;;;;;;5006387;28;19961;-69
2023/09/05 13:10:23;;;;;;;;;;;27.90;99.90;;;;;;5006838;28;19922;-69
2023/09/05 13:12:52;;;;;;;;;;;27.80;99.90;;;;;;5006685;28;19952;-69
2023/09/05 13:17:59;;;;;;;;;;;27.80;99.90;;;;;;4999370;28;19957;-68
2023/09/05 13:20:26;;;;;;;;;;;27.80;99.90;;;;;;5006366;28;19922;-69
2023/09/05 13:29:08;;;;;;;;;;;27.70;99.90;;;;;;4890063;28;20171;-69
2023/09/05 13:31:34;;;;;;;;;;;27.80;99.90;;;;;;4987163;28;19988;-69
2023/09/05 13:37:22;;;;;;;;;;;28.00;99.90;;;;;;4993414;28;19932;-69
2023/09/05 13:39:49;;;;;;;;;;;28.00;99.90;;;;;;5008247;28;19943;-69
2023/09/05 13:42:16;;;;;;;;;;;28.10;99.90;;;;;;5006139;28;19984;-68
2023/09/05 13:47:47;;;;;;;;;;;28.30;99.90;;;;;;5005971;28;19952;-69
2023/09/05 13:50:18;;;;;;;;;;;28.50;99.90;;;;;;5006303;28;19949;-69
2023/09/05 13:58:50;;;;;;;;;;;28.30;99.90;;;;;;5005916;28;19917;-68
2023/09/05 14:01:17;;;;;;;;;;;28.40;99.90;;;;;;5005938;28;19947;-69
2023/09/05 14:09:51;;;;;;;;;;;28.50;99.90;;;;;;5007690;28;19969;-68
2023/09/05 14:12:18;;;;;;;;;;;28.50;99.90;;;;;;5005369;28;19922;-69
2023/09/05 14:17:44;;;;;;;;;;;28.50;99.90;;;;;;4964938;29;19926;-69
2023/09/05 14:20:12;;;;;;;;;;;28.40;99.90;;;;;;5002356;28;20235;-68
2023/09/05 14:28:45;;;;;;;;;;;28.40;99.90;;;;;;5005366;28;19949;-68
2023/09/05 14:31:12;;;;;;;;;;;28.70;99.90;;;;;;5005349;28;19953;-69
2023/09/05 14:39:48;;;;;;;;;;;29.10;99.90;;;;;;4946385;28;20206;-69
2023/09/05 14:42:14;;;;;;;;;;;29.30;99.90;;;;;;4999274;28;19922;-69
2023/09/05 14:47:56;;;;;;;;;;;29.40;99.50;;;;;;4925782;29;19927;-69
2023/09/05 14:50:23;;;;;;;;;;;29.30;99.90;;;;;;4958204;28;19922;-68
2023/09/05 14:59:03;;;;;;;;;;;29.30;98.90;;;;;;4817039;29;19921;-68
2023/09/05 15:01:30;;;;;;;;;;;29.20;98.10;;;;;;5011694;28;19980;-68
2023/09/05 15:07:24;;;;;;;;;;;29.30;97.60;;;;;;4988191;28;19965;-69
2023/09/05 15:09:52;;;;;;;;;;;29.20;98.00;;;;;;4981154;28;19929;-69
2023/09/05 15:12:19;;;;;;;;;;;29.20;97.50;;;;;;5024357;28;19922;-68
2023/09/05 15:14:52;;;;;;;;;;;29.20;97.10;;;;;;5024065;28;19989;-69
2023/09/05 15:17:26;;;;;;;;;;;29.10;96.10;;;;;;5024073;28;19984;-68
2023/09/05 15:19:52;;;;;;;;;;;28.90;96.80;;;;;;5023817;28;19921;-69
2023/09/05 15:22:19;;;;;;;;;;;28.90;95.70;;;;;;5016713;28;20264;-69
2023/09/05 15:30:33;;;;;;;;;;;28.30;95.80;;;;;;4999673;28;20165;-68
2023/09/05 15:32:59;;;;;;;;;;;28.00;95.80;;;;;;5004227;28;19928;-69
2023/09/05 15:38:39;;;;;;;;;;;27.70;97.70;;;;;;5012051;28;19965;-69
2023/09/05 15:41:08;;;;;;;;;;;27.70;97.90;;;;;;5020078;28;19922;-69
2023/09/05 15:43:49;;;;;;;;;;;27.70;97.90;;;;;;5023075;28;19922;-68
2023/09/05 15:46:26;;;;;;;;;;;27.80;98.40;;;;;;5023929;28;19965;-68
2023/09/05 15:48:53;;;;;;;;;;;27.70;97.00;;;;;;5023764;28;19921;-69
2023/09/05 15:51:22;;;;;;;;;;;27.50;97.30;;;;;;5026685;28;19927;-69